createdAt,value
2022-08-10T00:01:34.430Z,4.60
2022-08-10T00:04:02.466Z,4.57
2022-08-10T00:06:29.978Z,5.00
2022-08-10T00:08:57.414Z,4.97
2022-08-10T00:11:26.413Z,4.70
2022-08-10T00:13:53.717Z,5.20
2022-08-10T00:16:20.749Z,5.47
2022-08-10T00:18:47.855Z,4.72
2022-08-10T00:21:15.429Z,5.18
2022-08-10T00:23:42.466Z,4.53
2022-08-10T00:26:09.580Z,4.63
2022-08-10T00:28:39.006Z,5.28
2022-08-10T00:31:06.606Z,5.20
2022-08-10T00:33:33.687Z,4.88
2022-08-10T00:36:00.766Z,5.47
2022-08-10T00:38:27.714Z,4.97
2022-08-10T00:40:54.675Z,4.70
2022-08-10T00:43:23.449Z,5.03
2022-08-10T00:45:59.331Z,4.15
2022-08-10T00:48:31.601Z,4.50
2022-08-10T00:51:01.897Z,5.15
2022-08-10T00:53:29.645Z,4.70
2022-08-10T00:56:34.897Z,4.60
2022-08-10T00:58:45.032Z,5.30
2022-08-10T01:02:10.190Z,5.20
2022-08-10T01:04:36.777Z,5.00
2022-08-10T01:07:14.450Z,5.00
2022-08-10T01:09:59.801Z,4.75
2022-08-10T01:12:49.737Z,5.30
2022-08-10T01:15:31.892Z,4.22
2022-08-10T01:18:14.869Z,5.05
2022-08-10T01:21:20.799Z,4.85
2022-08-10T01:24:02.480Z,4.40
2022-08-10T01:27:07.194Z,4.63
2022-08-10T01:29:39.447Z,4.15
2022-08-10T01:32:10.454Z,4.68
2022-08-10T01:34:52.025Z,4.47
2022-08-10T01:37:26.387Z,4.53
2022-08-10T01:39:58.848Z,4.15
2022-08-10T01:42:29.857Z,4.03
2022-08-10T01:45:02.344Z,3.95
2022-08-10T01:47:57.922Z,3.92
2022-08-10T01:50:59.471Z,3.83
2022-08-10T01:53:56.242Z,3.85
2022-08-10T01:56:28.468Z,3.83
2022-08-10T01:59:04.305Z,3.92
2022-08-10T02:01:39.411Z,4.43
2022-08-10T02:04:12.296Z,4.20
2022-08-10T02:06:46.733Z,4.57
2022-08-10T02:09:30.414Z,4.80
2022-08-10T02:12:08.607Z,3.90
2022-08-10T02:14:44.978Z,4.40
2022-08-10T02:17:57.528Z,4.00
2022-08-10T02:20:14.609Z,3.90
2022-08-10T02:22:45.555Z,4.15
2022-08-10T02:25:40.902Z,4.30
2022-08-10T02:28:05.114Z,3.90
2022-08-10T02:30:34.092Z,3.95
2022-08-10T02:33:02.114Z,3.50
2022-08-10T02:35:31.506Z,4.43
2022-08-10T02:38:59.863Z,4.40
2022-08-10T02:45:13.777Z,3.80
2022-08-10T02:45:19.342Z,4.13
2022-08-10T02:48:00.253Z,3.80
2022-08-10T02:50:32.429Z,4.18
2022-08-10T02:53:06.900Z,3.53
2022-08-10T02:56:05.204Z,3.97
2022-08-10T02:58:39.621Z,4.28
2022-08-10T03:01:14.296Z,3.88
2022-08-10T03:03:53.337Z,3.90
2022-08-10T03:06:25.618Z,4.00
2022-08-10T03:08:55.122Z,4.10
2022-08-10T03:12:16.719Z,4.10
2022-08-10T03:14:17.092Z,3.58
2022-08-10T03:16:46.368Z,4.47
2022-08-10T03:20:34.223Z,4.15
2022-08-10T03:22:03.862Z,4.10
2022-08-10T03:24:33.015Z,3.95
2022-08-10T03:27:01.716Z,3.85
2022-08-10T03:29:31.347Z,3.80
2022-08-10T03:32:20.158Z,3.97
2022-08-10T03:34:47.975Z,4.15
2022-08-10T03:37:15.017Z,3.30
2022-08-10T03:39:42.412Z,3.53
2022-08-10T03:42:15.509Z,3.38
2022-08-10T03:44:47.369Z,4.07
2022-08-10T03:47:19.482Z,4.80
2022-08-10T03:49:49.901Z,4.07
2022-08-10T03:52:19.309Z,4.22
2022-08-10T03:54:46.874Z,3.97
2022-08-10T03:57:14.478Z,3.78
2022-08-10T03:59:41.696Z,5.10
2022-08-10T04:02:46.138Z,4.63
2022-08-10T04:04:56.450Z,3.92
2022-08-10T04:07:23.788Z,4.40
2022-08-10T04:09:55.960Z,4.10
2022-08-10T04:12:24.593Z,3.70
2022-08-10T04:14:53.146Z,4.13
2022-08-10T04:18:03.362Z,4.25
2022-08-10T04:20:53.021Z,4.13
2022-08-10T04:23:25.365Z,4.38
2022-08-10T04:25:53.331Z,4.07
2022-08-10T04:28:20.803Z,3.58
2022-08-10T04:30:50.359Z,4.03
2022-08-10T04:33:21.439Z,4.35
2022-08-10T04:35:49.567Z,3.90
2022-08-10T04:38:18.545Z,3.45
2022-08-10T04:40:46.960Z,3.50
2022-08-10T04:43:14.334Z,3.30
2022-08-10T04:45:49.042Z,3.00
2022-08-10T04:48:42.522Z,3.03
2022-08-10T04:51:18.945Z,3.13
2022-08-10T04:54:03.792Z,2.92
2022-08-10T04:56:37.119Z,3.05
2022-08-10T04:59:06.064Z,2.50
2022-08-10T05:02:22.567Z,3.20
2022-08-10T05:04:36.776Z,3.30
2022-08-10T05:07:11.307Z,2.97
2022-08-10T05:10:04.878Z,3.00
2022-08-10T05:12:31.602Z,2.97
2022-08-10T05:14:58.669Z,3.15
2022-08-10T05:17:26.410Z,3.00
2022-08-10T05:20:03.646Z,2.70
2022-08-10T05:22:38.368Z,2.40
2022-08-10T05:25:08.899Z,3.10
2022-08-10T05:27:36.058Z,2.78
2022-08-10T05:30:04.337Z,2.42
2022-08-10T05:32:57.717Z,2.78
2022-08-10T05:35:23.774Z,2.35
2022-08-10T05:38:09.626Z,2.90
2022-08-10T05:40:46.922Z,2.42
2022-08-10T05:43:17.920Z,2.25
2022-08-10T05:46:18.018Z,2.70
2022-08-10T05:48:54.507Z,2.13
2022-08-10T05:51:20.710Z,2.25
2022-08-10T05:54:02.724Z,2.53
2022-08-10T05:56:56.982Z,2.22
2022-08-10T06:00:29.395Z,2.67
2022-08-10T06:02:41.460Z,2.40
2022-08-10T06:05:11.626Z,2.53
2022-08-10T06:07:49.269Z,2.17
2022-08-10T06:10:30.958Z,2.30
2022-08-10T06:13:30.138Z,2.38
2022-08-10T06:16:09.095Z,2.38
2022-08-10T06:18:39.769Z,2.25
2022-08-10T06:21:09.592Z,2.28
2022-08-10T06:23:39.021Z,2.13
2022-08-10T06:26:11.935Z,2.35
2022-08-10T06:28:52.926Z,2.08
2022-08-10T06:31:48.365Z,2.22
2022-08-10T06:34:25.212Z,1.88
2022-08-10T06:36:54.414Z,2.20
2022-08-10T06:39:38.298Z,1.90
2022-08-10T06:42:17.982Z,2.40
2022-08-10T06:45:23.482Z,3.13
2022-08-10T06:48:04.294Z,1.73
2022-08-10T06:50:55.974Z,1.98
2022-08-10T06:53:52.975Z,2.30
2022-08-10T06:56:38.230Z,1.80
2022-08-10T06:59:34.254Z,1.67
2022-08-10T07:02:17.067Z,2.63
2022-08-10T07:04:54.961Z,1.92
2022-08-10T07:07:27.101Z,2.25
2022-08-10T07:09:57.341Z,1.70
2022-08-10T07:12:25.902Z,1.88
2022-08-10T07:14:55.706Z,1.52
2022-08-10T07:17:26.930Z,1.42
2022-08-10T07:19:57.863Z,1.77
2022-08-10T07:23:51.930Z,1.70
2022-08-10T07:25:25.345Z,1.60
2022-08-10T07:28:00.815Z,2.00
2022-08-10T07:30:33.440Z,2.10
2022-08-10T07:33:02.640Z,2.05
2022-08-10T07:35:41.920Z,1.67
2022-08-10T07:38:38.686Z,1.48
2022-08-10T07:41:07.948Z,1.70
2022-08-10T07:43:40.515Z,1.50
2022-08-10T07:46:14.362Z,1.40
2022-08-10T07:48:49.160Z,1.67
2022-08-10T07:51:19.881Z,1.70
2022-08-10T07:53:52.777Z,1.52
2022-08-10T07:56:47.467Z,1.70
2022-08-10T07:59:18.885Z,1.73
2022-08-10T08:01:51.614Z,1.85
2022-08-10T08:04:22.600Z,1.50
2022-08-10T08:06:52.007Z,1.55
2022-08-10T08:09:21.452Z,1.83
2022-08-10T08:11:50.166Z,1.30
2022-08-10T08:14:19.361Z,2.00
2022-08-10T08:16:51.649Z,1.92
2022-08-10T08:19:28.509Z,1.70
2022-08-10T08:24:08.086Z,1.67
2022-08-10T08:24:57.713Z,1.60
2022-08-10T08:27:27.322Z,1.58
2022-08-10T08:29:54.970Z,1.45
2022-08-10T08:32:27.480Z,1.83
2022-08-10T08:35:24.397Z,1.70
2022-08-10T08:38:32.005Z,1.52
2022-08-10T08:40:47.989Z,1.30
2022-08-10T08:43:47.661Z,1.73
2022-08-10T08:46:39.174Z,1.70
2022-08-10T08:50:04.560Z,1.40
2022-08-10T08:52:46.874Z,1.73
2022-08-10T08:55:56.082Z,1.50
2022-08-10T08:58:29.429Z,1.75
2022-08-10T09:01:24.163Z,1.48
2022-08-10T09:04:40.668Z,1.23
2022-08-10T09:07:39.259Z,1.35
2022-08-10T09:11:19.087Z,1.00
2022-08-10T09:14:00.400Z,1.00
2022-08-10T09:16:53.749Z,2.03
2022-08-10T09:19:47.804Z,2.88
2022-08-10T09:22:43.306Z,1.70
2022-08-10T09:25:37.076Z,2.55
2022-08-10T09:28:06.858Z,2.53
2022-08-10T09:36:22.618Z,1.50
2022-08-10T09:37:39.871Z,1.65
2022-08-10T09:40:57.940Z,1.45
2022-08-10T09:43:26.257Z,1.13
2022-08-10T09:46:11.051Z,1.48
2022-08-10T09:48:51.416Z,1.60
2022-08-10T09:51:54.541Z,1.25
2022-08-10T09:54:38.335Z,1.60
2022-08-10T09:57:57.084Z,1.88
2022-08-10T10:00:35.479Z,1.77
2022-08-10T10:03:27.673Z,1.50
2022-08-10T10:06:21.742Z,1.40
2022-08-10T10:09:12.128Z,1.20
2022-08-10T10:12:14.580Z,1.40
2022-08-10T10:15:24.736Z,1.63
2022-08-10T10:18:30.256Z,1.67
2022-08-10T10:21:54.039Z,1.63
2022-08-10T10:24:41.930Z,1.50
2022-08-10T10:27:36.732Z,1.33
2022-08-10T10:30:11.346Z,1.67
2022-08-10T10:32:59.466Z,1.48
2022-08-10T10:35:45.633Z,1.58
2022-08-10T10:38:15.611Z,1.40
2022-08-10T10:41:20.186Z,2.08
2022-08-10T10:44:42.449Z,1.30
2022-08-10T10:47:46.433Z,1.90
2022-08-10T10:50:31.329Z,1.48
2022-08-10T10:53:10.200Z,1.65
2022-08-10T10:56:13.569Z,1.40
2022-08-10T10:58:52.198Z,0.90
2022-08-10T11:01:21.985Z,1.10
2022-08-10T11:03:58.528Z,0.95
2022-08-10T11:06:50.986Z,1.30
2022-08-10T11:10:08.685Z,1.20
2022-08-10T11:12:55.302Z,1.45
2022-08-10T11:15:59.642Z,1.20
2022-08-10T11:18:33.905Z,1.52
2022-08-10T11:21:26.857Z,1.35
2022-08-10T11:24:47.893Z,1.42
2022-08-10T11:27:28.937Z,1.55
2022-08-10T11:30:09.667Z,3.45
2022-08-10T11:33:07.067Z,2.55
2022-08-10T11:35:50.320Z,2.17
2022-08-10T11:39:04.085Z,1.98
2022-08-10T11:42:18.550Z,2.25
2022-08-10T11:45:12.005Z,1.85
2022-08-10T11:47:54.798Z,2.20
2022-08-10T11:50:35.051Z,2.50
2022-08-10T11:53:23.036Z,2.65
2022-08-10T11:55:57.691Z,2.30
2022-08-10T11:58:58.487Z,2.50
2022-08-10T12:01:32.859Z,1.70
2022-08-10T12:04:11.958Z,1.00
2022-08-10T12:06:55.357Z,1.50
2022-08-10T12:10:10.242Z,1.88
2022-08-10T12:12:13.361Z,1.30
2022-08-10T12:15:04.052Z,1.10
2022-08-10T12:17:53.759Z,1.13
2022-08-10T12:20:31.744Z,1.10
2022-08-10T12:23:22.365Z,0.90
2022-08-10T12:25:58.709Z,1.40
2022-08-10T12:28:50.082Z,1.30
2022-08-10T12:31:29.826Z,0.80
2022-08-10T12:34:32.123Z,1.40
2022-08-10T12:37:27.484Z,1.60
2022-08-10T12:40:35.131Z,1.98
2022-08-10T12:44:06.989Z,1.50
2022-08-10T12:46:41.988Z,1.73
2022-08-10T12:50:20.059Z,1.73
2022-08-10T12:52:54.885Z,1.40
2022-08-10T12:55:23.434Z,1.60
2022-08-10T12:57:55.390Z,1.52
2022-08-10T13:00:33.415Z,1.77
2022-08-10T13:03:03.409Z,1.42
2022-08-10T13:06:02.550Z,1.73
2022-08-10T13:08:41.883Z,1.90
2022-08-10T13:12:35.447Z,1.88
2022-08-10T13:14:15.151Z,4.05
2022-08-10T13:16:44.320Z,2.58
2022-08-10T13:19:14.622Z,2.90
2022-08-10T13:21:42.980Z,1.58
2022-08-10T13:24:26.111Z,1.65
2022-08-10T13:27:25.107Z,1.50
2022-08-10T13:30:07.016Z,1.45
2022-08-10T13:32:39.483Z,1.20
2022-08-10T13:35:14.279Z,1.40
2022-08-10T13:37:47.029Z,1.38
2022-08-10T13:40:19.536Z,1.10
2022-08-10T13:42:49.906Z,1.38
2022-08-10T13:45:21.956Z,1.80
2022-08-10T13:47:54.147Z,1.80
2022-08-10T13:50:33.099Z,1.70
2022-08-10T13:53:11.627Z,1.60
2022-08-10T13:55:56.540Z,1.50
2022-08-10T13:58:42.229Z,1.30
2022-08-10T14:01:15.829Z,1.60
2022-08-10T14:03:46.484Z,1.60
2022-08-10T14:06:16.390Z,1.58
2022-08-10T14:09:02.076Z,1.55
2022-08-10T14:11:30.483Z,1.30
2022-08-10T14:14:13.738Z,1.75
2022-08-10T14:16:45.887Z,1.60
2022-08-10T14:19:27.780Z,2.03
2022-08-10T14:21:56.760Z,1.77
2022-08-10T14:24:31.426Z,2.25
2022-08-10T14:27:08.861Z,1.70
2022-08-10T14:29:49.430Z,1.60
2022-08-10T14:32:21.610Z,1.60
2022-08-10T14:36:15.520Z,1.90
2022-08-10T14:37:50.087Z,1.80
2022-08-10T14:40:22.058Z,1.52
2022-08-10T14:43:04.572Z,1.88
2022-08-10T14:45:37.205Z,2.22
2022-08-10T14:48:08.732Z,2.05
2022-08-10T14:50:54.870Z,2.40
2022-08-10T14:53:27.960Z,2.00
2022-08-10T14:56:10.909Z,2.20
2022-08-10T14:58:58.926Z,1.90
2022-08-10T15:02:00.159Z,2.35
2022-08-10T15:04:26.528Z,3.05
2022-08-10T15:07:13.758Z,2.55
2022-08-10T15:10:01.016Z,1.70
2022-08-10T15:12:38.901Z,2.17
2022-08-10T15:15:16.336Z,1.85
2022-08-10T15:17:52.901Z,2.00
2022-08-10T15:20:24.701Z,1.60
2022-08-10T15:23:31.094Z,2.67
2022-08-10T15:26:11.279Z,2.00
2022-08-10T15:29:24.197Z,1.80
2022-08-10T15:31:35.480Z,1.88
2022-08-10T15:34:28.712Z,1.80
2022-08-10T15:37:40.484Z,1.95
2022-08-10T15:40:24.362Z,2.30
2022-08-10T15:43:20.664Z,2.85
2022-08-10T15:46:10.678Z,2.10
2022-08-10T15:48:48.072Z,2.47
2022-08-10T15:51:54.210Z,2.00
2022-08-10T15:54:38.192Z,1.83
2022-08-10T15:57:23.760Z,2.10
2022-08-10T15:59:58.576Z,2.15
2022-08-10T16:06:43.829Z,1.75
2022-08-10T16:10:23.313Z,1.92
2022-08-10T16:12:36.482Z,2.10
2022-08-10T16:15:14.654Z,2.10
2022-08-10T16:18:00.006Z,2.15
2022-08-10T16:20:53.311Z,1.90
2022-08-10T16:23:34.341Z,2.15
2022-08-10T16:26:14.471Z,2.30
2022-08-10T16:28:50.643Z,2.30
2022-08-10T16:31:23.136Z,2.45
2022-08-10T16:33:58.402Z,1.98
2022-08-10T16:36:41.599Z,2.08
2022-08-10T16:39:18.158Z,2.10
2022-08-10T16:42:08.155Z,1.90
2022-08-10T16:44:50.087Z,2.33
2022-08-10T16:47:17.731Z,1.65
2022-08-10T16:49:47.836Z,1.90
2022-08-10T16:52:17.115Z,2.28
2022-08-10T16:54:50.145Z,2.20
2022-08-10T16:57:19.628Z,2.90
2022-08-10T16:59:48.127Z,2.42
2022-08-10T17:02:19.440Z,2.13
2022-08-10T17:04:48.572Z,2.15
2022-08-10T17:07:18.801Z,1.88
2022-08-10T17:09:52.900Z,2.40
2022-08-10T17:12:27.314Z,2.20
2022-08-10T17:15:09.093Z,2.47
2022-08-10T17:17:47.651Z,2.50
2022-08-10T17:20:30.904Z,2.05
2022-08-10T17:23:04.866Z,2.40
2022-08-10T17:25:48.600Z,3.30
2022-08-10T17:28:34.957Z,2.90
2022-08-10T17:31:49.491Z,2.85
2022-08-10T17:34:18.172Z,2.33
2022-08-10T17:36:59.410Z,2.83
2022-08-10T17:39:41.268Z,2.30
2022-08-10T17:42:09.233Z,2.05
2022-08-10T17:44:40.890Z,2.25
2022-08-10T17:47:11.669Z,2.85
2022-08-10T17:49:42.233Z,2.20
2022-08-10T17:52:13.978Z,2.22
2022-08-10T17:54:44.483Z,2.47
2022-08-10T17:57:21.393Z,2.35
2022-08-10T17:59:52.888Z,2.55
2022-08-10T18:02:27.551Z,2.70
2022-08-10T18:04:58.831Z,2.60
2022-08-10T18:07:40.964Z,3.63
2022-08-10T18:10:11.495Z,2.40
2022-08-10T18:12:54.573Z,2.80
2022-08-10T18:15:26.912Z,4.03
2022-08-10T18:18:00.735Z,3.00
2022-08-10T18:20:37.227Z,2.97
2022-08-10T18:23:07.434Z,3.20
2022-08-10T18:25:39.530Z,2.88
2022-08-10T18:28:14.962Z,2.67
2022-08-10T18:30:53.538Z,3.20
2022-08-10T18:33:31.274Z,3.22
2022-08-10T18:36:03.639Z,3.13
2022-08-10T18:38:33.569Z,3.08
2022-08-10T18:41:07.218Z,3.28
2022-08-10T18:44:10.414Z,7.13
2022-08-10T18:46:46.001Z,11.20
2022-08-10T18:49:39.090Z,5.30
2022-08-10T18:52:14.697Z,4.10
2022-08-10T18:54:49.908Z,3.90
2022-08-10T18:57:50.509Z,3.33
2022-08-10T19:00:22.799Z,2.92
2022-08-10T19:03:31.592Z,3.53
2022-08-10T19:06:44.270Z,3.83
2022-08-10T19:09:47.142Z,5.30
2022-08-10T19:12:30.944Z,3.92
2022-08-10T19:15:18.705Z,4.15
2022-08-10T19:18:17.213Z,3.92
2022-08-10T19:20:49.856Z,3.58
2022-08-10T19:23:29.040Z,3.65
2022-08-10T19:26:44.838Z,3.88
2022-08-10T19:30:08.969Z,3.15
2022-08-10T19:32:54.964Z,3.65
2022-08-10T19:36:03.052Z,3.33
2022-08-10T19:39:00.841Z,3.25
2022-08-10T19:41:44.333Z,3.40
2022-08-10T19:44:58.455Z,3.10
2022-08-10T19:47:53.321Z,2.88
2022-08-10T19:50:37.600Z,2.97
2022-08-10T19:53:10.001Z,2.90
2022-08-10T19:55:50.274Z,2.80
2022-08-10T19:58:36.411Z,3.22
2022-08-10T20:01:06.977Z,3.17
2022-08-10T20:03:59.505Z,3.97
2022-08-10T20:06:50.163Z,3.38
2022-08-10T20:09:34.728Z,3.05
2022-08-10T20:12:08.338Z,2.97
2022-08-10T20:14:56.103Z,3.33
2022-08-10T20:17:51.732Z,3.28
2022-08-10T20:20:34.576Z,3.20
2022-08-10T20:23:30.370Z,3.08
2022-08-10T20:26:15.295Z,3.13
2022-08-10T20:29:57.291Z,3.38
2022-08-10T20:32:24.578Z,3.63
2022-08-10T20:35:04.617Z,7.70
2022-08-10T20:38:03.565Z,17.88
2022-08-10T20:41:14.447Z,5.50
2022-08-10T20:44:04.355Z,5.65
2022-08-10T20:47:01.540Z,4.38
2022-08-10T20:50:03.115Z,3.97
2022-08-10T20:52:33.738Z,3.72
2022-08-10T20:55:09.908Z,4.25
2022-08-10T20:58:04.335Z,3.55
2022-08-10T21:01:06.182Z,3.92
2022-08-10T21:04:27.431Z,3.85
2022-08-10T21:07:22.131Z,4.18
2022-08-10T21:10:06.428Z,3.03
2022-08-10T21:13:10.477Z,3.75
2022-08-10T21:15:55.519Z,3.80
2022-08-10T21:18:45.011Z,3.22
2022-08-10T21:21:59.704Z,3.40
2022-08-10T21:24:40.964Z,3.70
2022-08-10T21:27:47.122Z,3.75
2022-08-10T21:30:28.940Z,4.25
2022-08-10T21:33:37.956Z,4.03
2022-08-10T21:36:31.991Z,4.50
2022-08-10T21:39:43.719Z,4.07
2022-08-10T21:43:03.458Z,4.43
2022-08-10T21:46:22.987Z,3.90
2022-08-10T21:49:36.955Z,3.30
2022-08-10T21:52:33.305Z,4.25
2022-08-10T21:55:57.268Z,3.97
2022-08-10T21:59:20.298Z,4.63
2022-08-10T22:02:28.265Z,4.05
2022-08-10T22:05:22.026Z,4.53
2022-08-10T22:08:14.893Z,4.22
2022-08-10T22:11:08.717Z,3.65
2022-08-10T22:14:06.284Z,4.32
2022-08-10T22:17:59.937Z,3.88
2022-08-10T22:20:53.554Z,3.92
2022-08-10T22:24:19.906Z,4.63
2022-08-10T22:27:46.896Z,3.45
2022-08-10T22:30:23.441Z,3.85
2022-08-10T22:33:48.188Z,4.00
2022-08-10T22:37:02.877Z,4.47
2022-08-10T22:40:13.429Z,4.68
2022-08-10T22:43:10.924Z,3.42
2022-08-10T22:46:07.263Z,3.25
2022-08-10T22:49:00.693Z,3.75
2022-08-10T22:51:42.587Z,3.95
2022-08-10T22:54:41.494Z,3.75
2022-08-10T22:57:34.032Z,3.70
2022-08-10T23:00:28.687Z,3.85
2022-08-10T23:03:21.920Z,4.00
2022-08-10T23:06:07.412Z,3.92
2022-08-10T23:08:52.075Z,4.45
2022-08-10T23:11:35.731Z,3.40
2022-08-10T23:14:12.511Z,3.67
2022-08-10T23:17:09.342Z,3.55
2022-08-10T23:19:46.105Z,3.70
2022-08-10T23:22:16.796Z,3.78
2022-08-10T23:24:52.884Z,3.38
2022-08-10T23:27:38.849Z,3.47
2022-08-10T23:30:18.027Z,3.67
2022-08-10T23:32:52.066Z,4.22
2022-08-10T23:36:31.268Z,4.00
2022-08-10T23:38:16.697Z,3.20
2022-08-10T23:40:47.261Z,3.90
2022-08-10T23:43:46.641Z,3.60
2022-08-10T23:46:17.734Z,2.88
2022-08-10T23:48:47.033Z,3.00
2022-08-10T23:51:17.469Z,3.22
2022-08-10T23:53:47.786Z,2.67
2022-08-10T23:56:19.343Z,2.88
2022-08-10T23:58:49.864Z,3.15
